sensor_id;sensor_type;location;lat;lon;timestamp;P1;durP1;ratioP1;P2;durP2;ratioP2
4957;SDS011;2494;51.872;9.688;2023-04-10T00:01:58;46.73;;;32.50;;
4957;SDS011;2494;51.872;9.688;2023-04-10T00:04:43;42.90;;;31.93;;
4957;SDS011;2494;51.872;9.688;2023-04-10T00:07:28;46.10;;;32.63;;
4957;SDS011;2494;51.872;9.688;2023-04-10T00:10:14;50.10;;;33.30;;
4957;SDS011;2494;51.872;9.688;2023-04-10T00:12:59;46.20;;;34.47;;
4957;SDS011;2494;51.872;9.688;2023-04-10T00:15:47;45.93;;;34.03;;
4957;SDS011;2494;51.872;9.688;2023-04-10T00:18:32;54.17;;;35.60;;
4957;SDS011;2494;51.872;9.688;2023-04-10T00:21:17;47.30;;;34.00;;
4957;SDS011;2494;51.872;9.688;2023-04-10T00:24:02;49.33;;;34.53;;
4957;SDS011;2494;51.872;9.688;2023-04-10T00:26:48;51.40;;;33.97;;
4957;SDS011;2494;51.872;9.688;2023-04-10T00:29:32;53.07;;;37.07;;
4957;SDS011;2494;51.872;9.688;2023-04-10T00:32:19;57.80;;;36.87;;
4957;SDS011;2494;51.872;9.688;2023-04-10T00:35:06;52.90;;;32.90;;
4957;SDS011;2494;51.872;9.688;2023-04-10T00:37:51;51.73;;;34.23;;
4957;SDS011;2494;51.872;9.688;2023-04-10T00:40:37;55.27;;;35.30;;
4957;SDS011;2494;51.872;9.688;2023-04-10T00:43:21;55.13;;;35.83;;
4957;SDS011;2494;51.872;9.688;2023-04-10T00:46:06;58.13;;;37.13;;
4957;SDS011;2494;51.872;9.688;2023-04-10T00:48:53;48.67;;;35.57;;
4957;SDS011;2494;51.872;9.688;2023-04-10T00:51:39;49.03;;;33.93;;
4957;SDS011;2494;51.872;9.688;2023-04-10T00:54:24;52.80;;;33.83;;
4957;SDS011;2494;51.872;9.688;2023-04-10T00:57:10;48.43;;;31.63;;
4957;SDS011;2494;51.872;9.688;2023-04-10T00:59:55;45.73;;;32.10;;
4957;SDS011;2494;51.872;9.688;2023-04-10T01:02:41;46.33;;;31.03;;
4957;SDS011;2494;51.872;9.688;2023-04-10T01:05:27;47.80;;;31.00;;
4957;SDS011;2494;51.872;9.688;2023-04-10T01:08:19;51.90;;;32.47;;
4957;SDS011;2494;51.872;9.688;2023-04-10T01:11:08;45.67;;;32.37;;
4957;SDS011;2494;51.872;9.688;2023-04-10T01:13:57;49.70;;;31.20;;
4957;SDS011;2494;51.872;9.688;2023-04-10T01:16:46;45.73;;;31.20;;
4957;SDS011;2494;51.872;9.688;2023-04-10T01:19:42;50.70;;;31.83;;
4957;SDS011;2494;51.872;9.688;2023-04-10T01:22:34;43.83;;;29.43;;
4957;SDS011;2494;51.872;9.688;2023-04-10T01:25:35;43.70;;;29.20;;
4957;SDS011;2494;51.872;9.688;2023-04-10T01:31:31;45.73;;;30.17;;
4957;SDS011;2494;51.872;9.688;2023-04-10T01:34:19;46.60;;;30.50;;
4957;SDS011;2494;51.872;9.688;2023-04-10T01:37:07;47.83;;;30.87;;
4957;SDS011;2494;51.872;9.688;2023-04-10T01:39:55;44.47;;;30.90;;
4957;SDS011;2494;51.872;9.688;2023-04-10T01:42:42;42.30;;;28.87;;
4957;SDS011;2494;51.872;9.688;2023-04-10T01:45:28;47.67;;;32.10;;
4957;SDS011;2494;51.872;9.688;2023-04-10T01:48:14;46.50;;;29.43;;
4957;SDS011;2494;51.872;9.688;2023-04-10T01:51:02;46.23;;;30.10;;
4957;SDS011;2494;51.872;9.688;2023-04-10T01:53:48;48.73;;;31.50;;
4957;SDS011;2494;51.872;9.688;2023-04-10T01:56:33;45.90;;;28.87;;
4957;SDS011;2494;51.872;9.688;2023-04-10T01:59:19;50.33;;;31.47;;
4957;SDS011;2494;51.872;9.688;2023-04-10T02:02:04;43.67;;;29.70;;
4957;SDS011;2494;51.872;9.688;2023-04-10T02:04:52;44.77;;;30.50;;
4957;SDS011;2494;51.872;9.688;2023-04-10T02:07:38;43.37;;;29.27;;
4957;SDS011;2494;51.872;9.688;2023-04-10T02:10:27;46.53;;;30.80;;
4957;SDS011;2494;51.872;9.688;2023-04-10T02:13:14;47.93;;;28.80;;
4957;SDS011;2494;51.872;9.688;2023-04-10T02:16:02;51.03;;;31.23;;
4957;SDS011;2494;51.872;9.688;2023-04-10T02:18:48;41.90;;;28.57;;
4957;SDS011;2494;51.872;9.688;2023-04-10T02:21:36;43.57;;;30.23;;
4957;SDS011;2494;51.872;9.688;2023-04-10T02:24:22;51.33;;;29.70;;
4957;SDS011;2494;51.872;9.688;2023-04-10T02:27:08;42.63;;;29.57;;
4957;SDS011;2494;51.872;9.688;2023-04-10T02:29:53;46.37;;;29.23;;
4957;SDS011;2494;51.872;9.688;2023-04-10T02:32:39;48.13;;;30.20;;
4957;SDS011;2494;51.872;9.688;2023-04-10T02:35:24;44.30;;;30.33;;
4957;SDS011;2494;51.872;9.688;2023-04-10T02:38:13;37.90;;;27.30;;
4957;SDS011;2494;51.872;9.688;2023-04-10T02:40:58;38.43;;;27.40;;
4957;SDS011;2494;51.872;9.688;2023-04-10T02:43:43;40.50;;;27.33;;
4957;SDS011;2494;51.872;9.688;2023-04-10T02:46:28;42.13;;;28.80;;
4957;SDS011;2494;51.872;9.688;2023-04-10T02:49:13;44.87;;;29.63;;
4957;SDS011;2494;51.872;9.688;2023-04-10T02:51:58;42.20;;;28.20;;
4957;SDS011;2494;51.872;9.688;2023-04-10T02:54:44;41.20;;;28.30;;
4957;SDS011;2494;51.872;9.688;2023-04-10T02:57:30;38.00;;;27.03;;
4957;SDS011;2494;51.872;9.688;2023-04-10T03:00:16;42.00;;;28.97;;
4957;SDS011;2494;51.872;9.688;2023-04-10T03:03:02;44.03;;;29.07;;
4957;SDS011;2494;51.872;9.688;2023-04-10T03:05:47;42.03;;;29.10;;
4957;SDS011;2494;51.872;9.688;2023-04-10T03:08:32;44.37;;;29.10;;
4957;SDS011;2494;51.872;9.688;2023-04-10T03:11:19;41.87;;;28.70;;
4957;SDS011;2494;51.872;9.688;2023-04-10T03:14:03;43.43;;;27.67;;
4957;SDS011;2494;51.872;9.688;2023-04-10T03:16:49;42.70;;;26.67;;
4957;SDS011;2494;51.872;9.688;2023-04-10T03:19:33;38.27;;;27.90;;
4957;SDS011;2494;51.872;9.688;2023-04-10T03:22:18;40.87;;;27.43;;
4957;SDS011;2494;51.872;9.688;2023-04-10T03:25:03;41.20;;;28.00;;
4957;SDS011;2494;51.872;9.688;2023-04-10T03:27:50;37.50;;;26.30;;
4957;SDS011;2494;51.872;9.688;2023-04-10T03:30:36;41.10;;;28.00;;
4957;SDS011;2494;51.872;9.688;2023-04-10T03:33:21;41.90;;;27.73;;
4957;SDS011;2494;51.872;9.688;2023-04-10T03:36:06;40.87;;;29.90;;
4957;SDS011;2494;51.872;9.688;2023-04-10T03:38:51;41.87;;;28.27;;
4957;SDS011;2494;51.872;9.688;2023-04-10T03:41:37;43.40;;;27.63;;
4957;SDS011;2494;51.872;9.688;2023-04-10T03:44:23;42.43;;;28.73;;
4957;SDS011;2494;51.872;9.688;2023-04-10T03:47:08;42.07;;;26.57;;
4957;SDS011;2494;51.872;9.688;2023-04-10T03:49:53;43.70;;;30.23;;
4957;SDS011;2494;51.872;9.688;2023-04-10T03:52:38;43.73;;;29.77;;
4957;SDS011;2494;51.872;9.688;2023-04-10T03:55:24;39.03;;;28.40;;
4957;SDS011;2494;51.872;9.688;2023-04-10T03:58:09;46.10;;;28.67;;
4957;SDS011;2494;51.872;9.688;2023-04-10T04:00:56;44.20;;;30.90;;
4957;SDS011;2494;51.872;9.688;2023-04-10T04:03:41;41.93;;;28.10;;
4957;SDS011;2494;51.872;9.688;2023-04-10T04:06:26;42.17;;;28.73;;
4957;SDS011;2494;51.872;9.688;2023-04-10T04:09:11;46.53;;;30.27;;
4957;SDS011;2494;51.872;9.688;2023-04-10T04:11:56;47.47;;;30.50;;
4957;SDS011;2494;51.872;9.688;2023-04-10T04:14:41;40.13;;;28.10;;
4957;SDS011;2494;51.872;9.688;2023-04-10T04:17:28;47.87;;;31.17;;
4957;SDS011;2494;51.872;9.688;2023-04-10T04:20:13;43.33;;;29.53;;
4957;SDS011;2494;51.872;9.688;2023-04-10T04:22:58;43.27;;;30.40;;
4957;SDS011;2494;51.872;9.688;2023-04-10T04:25:43;45.97;;;29.70;;
4957;SDS011;2494;51.872;9.688;2023-04-10T04:28:28;46.97;;;30.83;;
4957;SDS011;2494;51.872;9.688;2023-04-10T04:31:13;42.60;;;29.10;;
4957;SDS011;2494;51.872;9.688;2023-04-10T04:34:00;43.63;;;31.83;;
4957;SDS011;2494;51.872;9.688;2023-04-10T04:36:45;40.17;;;29.87;;
4957;SDS011;2494;51.872;9.688;2023-04-10T04:39:30;46.13;;;31.90;;
4957;SDS011;2494;51.872;9.688;2023-04-10T04:42:15;44.80;;;31.63;;
4957;SDS011;2494;51.872;9.688;2023-04-10T04:45:00;50.07;;;32.00;;
4957;SDS011;2494;51.872;9.688;2023-04-10T04:47:45;47.50;;;32.00;;
4957;SDS011;2494;51.872;9.688;2023-04-10T04:50:31;45.93;;;33.00;;
4957;SDS011;2494;51.872;9.688;2023-04-10T04:53:17;43.27;;;30.80;;
4957;SDS011;2494;51.872;9.688;2023-04-10T04:56:02;43.90;;;31.30;;
4957;SDS011;2494;51.872;9.688;2023-04-10T04:58:47;50.03;;;30.80;;
4957;SDS011;2494;51.872;9.688;2023-04-10T05:01:32;43.00;;;30.20;;
4957;SDS011;2494;51.872;9.688;2023-04-10T05:04:17;41.83;;;29.20;;
4957;SDS011;2494;51.872;9.688;2023-04-10T05:07:04;46.77;;;31.30;;
4957;SDS011;2494;51.872;9.688;2023-04-10T05:09:49;42.50;;;29.93;;
4957;SDS011;2494;51.872;9.688;2023-04-10T05:12:34;44.23;;;29.77;;
4957;SDS011;2494;51.872;9.688;2023-04-10T05:15:19;38.40;;;28.47;;
4957;SDS011;2494;51.872;9.688;2023-04-10T05:18:04;36.70;;;27.37;;
4957;SDS011;2494;51.872;9.688;2023-04-10T05:20:49;41.50;;;29.23;;
4957;SDS011;2494;51.872;9.688;2023-04-10T05:23:35;39.83;;;28.00;;
4957;SDS011;2494;51.872;9.688;2023-04-10T05:26:20;48.10;;;32.23;;
4957;SDS011;2494;51.872;9.688;2023-04-10T05:29:05;42.73;;;29.60;;
4957;SDS011;2494;51.872;9.688;2023-04-10T05:31:50;55.67;;;35.93;;
4957;SDS011;2494;51.872;9.688;2023-04-10T05:34:35;39.07;;;28.00;;
4957;SDS011;2494;51.872;9.688;2023-04-10T05:37:19;41.27;;;29.13;;
4957;SDS011;2494;51.872;9.688;2023-04-10T05:40:09;37.37;;;26.70;;
4957;SDS011;2494;51.872;9.688;2023-04-10T05:42:54;39.73;;;28.57;;
4957;SDS011;2494;51.872;9.688;2023-04-10T05:45:42;39.33;;;26.03;;
4957;SDS011;2494;51.872;9.688;2023-04-10T05:48:27;34.00;;;24.97;;
4957;SDS011;2494;51.872;9.688;2023-04-10T05:51:12;36.90;;;26.87;;
4957;SDS011;2494;51.872;9.688;2023-04-10T05:53:57;35.83;;;27.03;;
4957;SDS011;2494;51.872;9.688;2023-04-10T05:56:43;36.47;;;26.00;;
4957;SDS011;2494;51.872;9.688;2023-04-10T05:59:28;35.20;;;25.33;;
4957;SDS011;2494;51.872;9.688;2023-04-10T06:02:13;32.40;;;25.60;;
4957;SDS011;2494;51.872;9.688;2023-04-10T06:04:59;32.00;;;26.30;;
4957;SDS011;2494;51.872;9.688;2023-04-10T06:07:44;31.63;;;26.43;;
4957;SDS011;2494;51.872;9.688;2023-04-10T06:10:29;29.17;;;24.80;;
4957;SDS011;2494;51.872;9.688;2023-04-10T06:13:15;26.13;;;23.33;;
4957;SDS011;2494;51.872;9.688;2023-04-10T06:16:00;30.33;;;25.17;;
4957;SDS011;2494;51.872;9.688;2023-04-10T06:18:45;25.67;;;22.57;;
4957;SDS011;2494;51.872;9.688;2023-04-10T06:21:30;25.27;;;22.57;;
4957;SDS011;2494;51.872;9.688;2023-04-10T06:24:15;25.90;;;23.00;;
4957;SDS011;2494;51.872;9.688;2023-04-10T06:27:00;23.97;;;21.53;;
4957;SDS011;2494;51.872;9.688;2023-04-10T06:29:47;28.63;;;23.00;;
4957;SDS011;2494;51.872;9.688;2023-04-10T06:32:32;25.33;;;22.73;;
4957;SDS011;2494;51.872;9.688;2023-04-10T06:35:17;26.27;;;22.63;;
4957;SDS011;2494;51.872;9.688;2023-04-10T06:38:02;24.83;;;22.23;;
4957;SDS011;2494;51.872;9.688;2023-04-10T06:40:47;24.50;;;21.83;;
4957;SDS011;2494;51.872;9.688;2023-04-10T06:43:32;23.23;;;20.80;;
4957;SDS011;2494;51.872;9.688;2023-04-10T06:46:19;25.43;;;22.83;;
4957;SDS011;2494;51.872;9.688;2023-04-10T06:49:04;25.93;;;23.23;;
4957;SDS011;2494;51.872;9.688;2023-04-10T06:51:49;24.33;;;21.80;;
4957;SDS011;2494;51.872;9.688;2023-04-10T06:54:34;23.10;;;20.70;;
4957;SDS011;2494;51.872;9.688;2023-04-10T06:57:19;24.23;;;21.77;;
4957;SDS011;2494;51.872;9.688;2023-04-10T07:00:05;22.60;;;20.20;;
4957;SDS011;2494;51.872;9.688;2023-04-10T07:02:51;23.53;;;21.03;;
4957;SDS011;2494;51.872;9.688;2023-04-10T07:05:36;23.67;;;21.20;;
4957;SDS011;2494;51.872;9.688;2023-04-10T07:08:21;24.07;;;21.13;;
4957;SDS011;2494;51.872;9.688;2023-04-10T07:11:06;24.90;;;22.20;;
4957;SDS011;2494;51.872;9.688;2023-04-10T07:13:51;25.60;;;22.87;;
4957;SDS011;2494;51.872;9.688;2023-04-10T07:16:41;24.90;;;22.37;;
4957;SDS011;2494;51.872;9.688;2023-04-10T07:19:27;25.47;;;22.90;;
4957;SDS011;2494;51.872;9.688;2023-04-10T07:22:12;26.60;;;22.80;;
4957;SDS011;2494;51.872;9.688;2023-04-10T07:24:58;25.97;;;21.97;;
4957;SDS011;2494;51.872;9.688;2023-04-10T07:27:43;25.03;;;22.33;;
4957;SDS011;2494;51.872;9.688;2023-04-10T07:30:28;25.20;;;22.33;;
4957;SDS011;2494;51.872;9.688;2023-04-10T07:33:13;23.73;;;21.27;;
4957;SDS011;2494;51.872;9.688;2023-04-10T07:35:59;21.70;;;19.40;;
4957;SDS011;2494;51.872;9.688;2023-04-10T07:38:45;24.37;;;21.77;;
4957;SDS011;2494;51.872;9.688;2023-04-10T07:41:30;23.43;;;21.10;;
4957;SDS011;2494;51.872;9.688;2023-04-10T07:44:15;25.17;;;22.53;;
4957;SDS011;2494;51.872;9.688;2023-04-10T07:47:01;26.13;;;21.37;;
4957;SDS011;2494;51.872;9.688;2023-04-10T07:49:46;23.47;;;20.90;;
4957;SDS011;2494;51.872;9.688;2023-04-10T07:52:33;23.03;;;20.73;;
4957;SDS011;2494;51.872;9.688;2023-04-10T07:55:18;22.97;;;20.50;;
4957;SDS011;2494;51.872;9.688;2023-04-10T07:58:03;22.50;;;20.47;;
4957;SDS011;2494;51.872;9.688;2023-04-10T08:00:48;24.00;;;21.60;;
4957;SDS011;2494;51.872;9.688;2023-04-10T08:03:36;22.73;;;20.43;;
4957;SDS011;2494;51.872;9.688;2023-04-10T08:06:21;23.67;;;21.37;;
4957;SDS011;2494;51.872;9.688;2023-04-10T08:09:07;23.73;;;21.40;;
4957;SDS011;2494;51.872;9.688;2023-04-10T08:11:52;23.47;;;21.07;;
4957;SDS011;2494;51.872;9.688;2023-04-10T08:14:37;24.03;;;21.70;;
4957;SDS011;2494;51.872;9.688;2023-04-10T08:17:22;23.50;;;21.30;;
4957;SDS011;2494;51.872;9.688;2023-04-10T08:20:08;23.23;;;20.90;;
4957;SDS011;2494;51.872;9.688;2023-04-10T08:22:53;22.90;;;20.60;;
4957;SDS011;2494;51.872;9.688;2023-04-10T08:25:39;23.87;;;21.60;;
4957;SDS011;2494;51.872;9.688;2023-04-10T08:28:25;22.27;;;19.90;;
4957;SDS011;2494;51.872;9.688;2023-04-10T08:31:10;22.67;;;20.37;;
4957;SDS011;2494;51.872;9.688;2023-04-10T08:33:55;22.77;;;20.67;;
4957;SDS011;2494;51.872;9.688;2023-04-10T08:36:40;22.20;;;20.00;;
4957;SDS011;2494;51.872;9.688;2023-04-10T08:39:25;21.50;;;18.70;;
4957;SDS011;2494;51.872;9.688;2023-04-10T08:42:11;22.23;;;20.13;;
4957;SDS011;2494;51.872;9.688;2023-04-10T08:44:56;22.63;;;20.47;;
4957;SDS011;2494;51.872;9.688;2023-04-10T08:47:41;21.40;;;19.40;;
4957;SDS011;2494;51.872;9.688;2023-04-10T08:50:27;20.93;;;19.03;;
4957;SDS011;2494;51.872;9.688;2023-04-10T08:53:14;20.67;;;18.70;;
4957;SDS011;2494;51.872;9.688;2023-04-10T08:55:59;19.37;;;17.57;;
4957;SDS011;2494;51.872;9.688;2023-04-10T08:58:48;20.97;;;18.90;;
4957;SDS011;2494;51.872;9.688;2023-04-10T09:01:34;19.73;;;17.90;;
4957;SDS011;2494;51.872;9.688;2023-04-10T09:04:19;19.37;;;17.67;;
4957;SDS011;2494;51.872;9.688;2023-04-10T09:07:05;17.97;;;16.37;;
4957;SDS011;2494;51.872;9.688;2023-04-10T09:09:51;17.90;;;16.50;;
4957;SDS011;2494;51.872;9.688;2023-04-10T09:12:46;16.53;;;15.23;;
4957;SDS011;2494;51.872;9.688;2023-04-10T09:15:35;15.70;;;14.37;;
4957;SDS011;2494;51.872;9.688;2023-04-10T09:18:42;16.30;;;14.90;;
4957;SDS011;2494;51.872;9.688;2023-04-10T09:21:27;14.57;;;13.30;;
4957;SDS011;2494;51.872;9.688;2023-04-10T09:24:12;14.63;;;13.43;;
4957;SDS011;2494;51.872;9.688;2023-04-10T09:26:57;12.70;;;11.60;;
4957;SDS011;2494;51.872;9.688;2023-04-10T09:29:43;11.43;;;10.53;;
4957;SDS011;2494;51.872;9.688;2023-04-10T09:32:36;11.13;;;10.17;;
4957;SDS011;2494;51.872;9.688;2023-04-10T09:35:22;11.63;;;10.73;;
4957;SDS011;2494;51.872;9.688;2023-04-10T09:38:14;12.00;;;10.70;;
4957;SDS011;2494;51.872;9.688;2023-04-10T09:41:05;11.57;;;10.37;;
4957;SDS011;2494;51.872;9.688;2023-04-10T09:43:51;12.57;;;11.27;;
4957;SDS011;2494;51.872;9.688;2023-04-10T09:46:48;11.60;;;10.60;;
4957;SDS011;2494;51.872;9.688;2023-04-10T09:49:39;12.20;;;11.10;;
4957;SDS011;2494;51.872;9.688;2023-04-10T09:52:28;11.20;;;10.10;;
4957;SDS011;2494;51.872;9.688;2023-04-10T09:55:15;12.77;;;11.50;;
4957;SDS011;2494;51.872;9.688;2023-04-10T09:58:00;10.23;;;9.33;;
4957;SDS011;2494;51.872;9.688;2023-04-10T10:00:47;12.90;;;9.93;;
4957;SDS011;2494;51.872;9.688;2023-04-10T10:03:32;14.17;;;10.13;;
4957;SDS011;2494;51.872;9.688;2023-04-10T10:06:18;10.30;;;9.20;;
4957;SDS011;2494;51.872;9.688;2023-04-10T10:09:04;8.83;;;7.73;;
4957;SDS011;2494;51.872;9.688;2023-04-10T10:11:49;18.03;;;8.03;;
4957;SDS011;2494;51.872;9.688;2023-04-10T10:14:36;9.03;;;8.27;;
4957;SDS011;2494;51.872;9.688;2023-04-10T10:17:23;12.00;;;8.10;;
4957;SDS011;2494;51.872;9.688;2023-04-10T10:20:12;12.33;;;9.13;;
4957;SDS011;2494;51.872;9.688;2023-04-10T10:23:01;11.90;;;8.63;;
4957;SDS011;2494;51.872;9.688;2023-04-10T10:25:47;11.83;;;9.00;;
4957;SDS011;2494;51.872;9.688;2023-04-10T10:28:32;8.20;;;7.40;;
4957;SDS011;2494;51.872;9.688;2023-04-10T10:31:18;10.07;;;8.10;;
4957;SDS011;2494;51.872;9.688;2023-04-10T10:34:06;7.63;;;7.03;;
4957;SDS011;2494;51.872;9.688;2023-04-10T10:36:52;6.30;;;5.90;;
4957;SDS011;2494;51.872;9.688;2023-04-10T10:39:41;10.93;;;6.73;;
4957;SDS011;2494;51.872;9.688;2023-04-10T10:42:29;6.87;;;6.27;;
4957;SDS011;2494;51.872;9.688;2023-04-10T10:45:17;14.57;;;7.27;;
4957;SDS011;2494;51.872;9.688;2023-04-10T10:48:02;7.00;;;6.40;;
4957;SDS011;2494;51.872;9.688;2023-04-10T10:50:50;6.73;;;6.13;;
4957;SDS011;2494;51.872;9.688;2023-04-10T10:53:36;8.17;;;5.87;;
4957;SDS011;2494;51.872;9.688;2023-04-10T10:56:36;8.60;;;7.80;;
4957;SDS011;2494;51.872;9.688;2023-04-10T11:02:21;9.57;;;8.33;;
4957;SDS011;2494;51.872;9.688;2023-04-10T11:05:07;8.77;;;7.00;;
4957;SDS011;2494;51.872;9.688;2023-04-10T11:08:07;9.30;;;7.83;;
4957;SDS011;2494;51.872;9.688;2023-04-10T11:10:59;7.07;;;6.47;;
4957;SDS011;2494;51.872;9.688;2023-04-10T11:16:50;8.10;;;6.03;;
4957;SDS011;2494;51.872;9.688;2023-04-10T11:25:46;7.10;;;6.40;;
4957;SDS011;2494;51.872;9.688;2023-04-10T11:28:35;10.03;;;7.37;;
4957;SDS011;2494;51.872;9.688;2023-04-10T11:31:21;7.87;;;7.00;;
4957;SDS011;2494;51.872;9.688;2023-04-10T11:34:08;7.47;;;6.97;;
4957;SDS011;2494;51.872;9.688;2023-04-10T11:36:53;7.90;;;6.40;;
4957;SDS011;2494;51.872;9.688;2023-04-10T11:39:38;9.47;;;6.90;;
4957;SDS011;2494;51.872;9.688;2023-04-10T11:42:23;10.23;;;6.27;;
4957;SDS011;2494;51.872;9.688;2023-04-10T11:45:24;13.10;;;6.27;;
4957;SDS011;2494;51.872;9.688;2023-04-10T11:48:09;22.13;;;7.30;;
4957;SDS011;2494;51.872;9.688;2023-04-10T11:50:55;16.97;;;6.80;;
4957;SDS011;2494;51.872;9.688;2023-04-10T11:53:41;16.33;;;8.07;;
4957;SDS011;2494;51.872;9.688;2023-04-10T11:56:26;7.67;;;6.83;;
4957;SDS011;2494;51.872;9.688;2023-04-10T11:59:12;9.57;;;7.70;;
4957;SDS011;2494;51.872;9.688;2023-04-10T12:02:03;10.00;;;6.30;;
4957;SDS011;2494;51.872;9.688;2023-04-10T12:04:56;7.20;;;6.50;;
4957;SDS011;2494;51.872;9.688;2023-04-10T12:07:42;7.93;;;7.30;;
4957;SDS011;2494;51.872;9.688;2023-04-10T12:10:27;7.80;;;7.07;;
4957;SDS011;2494;51.872;9.688;2023-04-10T12:13:23;10.23;;;7.03;;
4957;SDS011;2494;51.872;9.688;2023-04-10T12:16:08;7.70;;;7.17;;
4957;SDS011;2494;51.872;9.688;2023-04-10T12:18:54;7.63;;;7.03;;
4957;SDS011;2494;51.872;9.688;2023-04-10T12:21:40;8.03;;;7.30;;
4957;SDS011;2494;51.872;9.688;2023-04-10T12:24:42;8.27;;;7.63;;
4957;SDS011;2494;51.872;9.688;2023-04-10T12:27:27;6.93;;;6.33;;
4957;SDS011;2494;51.872;9.688;2023-04-10T12:30:12;7.70;;;7.10;;
4957;SDS011;2494;51.872;9.688;2023-04-10T12:32:57;7.17;;;6.47;;
4957;SDS011;2494;51.872;9.688;2023-04-10T12:35:46;7.10;;;6.10;;
4957;SDS011;2494;51.872;9.688;2023-04-10T12:38:34;7.13;;;6.53;;
4957;SDS011;2494;51.872;9.688;2023-04-10T12:41:22;6.87;;;6.27;;
4957;SDS011;2494;51.872;9.688;2023-04-10T12:44:08;7.73;;;7.07;;
4957;SDS011;2494;51.872;9.688;2023-04-10T12:46:59;7.03;;;6.43;;
4957;SDS011;2494;51.872;9.688;2023-04-10T12:50:07;8.23;;;7.27;;
4957;SDS011;2494;51.872;9.688;2023-04-10T12:53:00;9.40;;;6.43;;
4957;SDS011;2494;51.872;9.688;2023-04-10T12:55:56;7.00;;;6.30;;
4957;SDS011;2494;51.872;9.688;2023-04-10T12:58:43;6.63;;;6.13;;
4957;SDS011;2494;51.872;9.688;2023-04-10T13:01:28;6.70;;;6.10;;
4957;SDS011;2494;51.872;9.688;2023-04-10T13:04:13;6.80;;;6.13;;
4957;SDS011;2494;51.872;9.688;2023-04-10T13:06:58;6.90;;;6.30;;
4957;SDS011;2494;51.872;9.688;2023-04-10T13:09:44;6.90;;;6.40;;
4957;SDS011;2494;51.872;9.688;2023-04-10T13:12:29;6.33;;;5.63;;
4957;SDS011;2494;51.872;9.688;2023-04-10T13:15:16;6.17;;;5.63;;
4957;SDS011;2494;51.872;9.688;2023-04-10T13:18:01;6.07;;;5.57;;
4957;SDS011;2494;51.872;9.688;2023-04-10T13:20:46;6.67;;;6.03;;
4957;SDS011;2494;51.872;9.688;2023-04-10T13:23:31;5.43;;;5.03;;
4957;SDS011;2494;51.872;9.688;2023-04-10T13:26:16;5.77;;;5.37;;
4957;SDS011;2494;51.872;9.688;2023-04-10T13:29:01;6.30;;;5.70;;
4957;SDS011;2494;51.872;9.688;2023-04-10T13:31:47;5.40;;;5.07;;
4957;SDS011;2494;51.872;9.688;2023-04-10T13:34:32;5.67;;;5.17;;
4957;SDS011;2494;51.872;9.688;2023-04-10T13:37:17;5.10;;;4.70;;
4957;SDS011;2494;51.872;9.688;2023-04-10T13:40:02;6.23;;;5.73;;
4957;SDS011;2494;51.872;9.688;2023-04-10T13:42:48;5.37;;;4.97;;
4957;SDS011;2494;51.872;9.688;2023-04-10T13:45:33;4.93;;;4.40;;
4957;SDS011;2494;51.872;9.688;2023-04-10T13:48:19;5.50;;;5.10;;
4957;SDS011;2494;51.872;9.688;2023-04-10T13:51:04;8.67;;;4.50;;
4957;SDS011;2494;51.872;9.688;2023-04-10T13:53:50;4.47;;;4.17;;
4957;SDS011;2494;51.872;9.688;2023-04-10T13:56:35;4.60;;;4.20;;
4957;SDS011;2494;51.872;9.688;2023-04-10T13:59:20;4.30;;;3.97;;
4957;SDS011;2494;51.872;9.688;2023-04-10T14:02:05;4.40;;;4.10;;
4957;SDS011;2494;51.872;9.688;2023-04-10T14:04:51;4.47;;;4.17;;
4957;SDS011;2494;51.872;9.688;2023-04-10T14:07:36;5.20;;;4.10;;
4957;SDS011;2494;51.872;9.688;2023-04-10T14:10:21;4.27;;;4.00;;
4957;SDS011;2494;51.872;9.688;2023-04-10T14:13:06;4.90;;;4.40;;
4957;SDS011;2494;51.872;9.688;2023-04-10T14:15:51;4.97;;;4.57;;
4957;SDS011;2494;51.872;9.688;2023-04-10T14:18:36;5.00;;;4.60;;
4957;SDS011;2494;51.872;9.688;2023-04-10T14:21:23;3.93;;;3.63;;
4957;SDS011;2494;51.872;9.688;2023-04-10T14:24:08;4.57;;;4.37;;
4957;SDS011;2494;51.872;9.688;2023-04-10T14:26:53;4.23;;;3.70;;
4957;SDS011;2494;51.872;9.688;2023-04-10T14:29:41;4.10;;;3.80;;
4957;SDS011;2494;51.872;9.688;2023-04-10T14:32:26;4.47;;;4.07;;
4957;SDS011;2494;51.872;9.688;2023-04-10T14:35:11;3.87;;;3.67;;
4957;SDS011;2494;51.872;9.688;2023-04-10T14:37:57;4.60;;;4.30;;
4957;SDS011;2494;51.872;9.688;2023-04-10T14:40:42;4.70;;;4.40;;
4957;SDS011;2494;51.872;9.688;2023-04-10T14:43:31;4.37;;;3.50;;
4957;SDS011;2494;51.872;9.688;2023-04-10T14:46:16;3.40;;;3.10;;
4957;SDS011;2494;51.872;9.688;2023-04-10T14:49:01;3.93;;;3.57;;
4957;SDS011;2494;51.872;9.688;2023-04-10T14:51:46;5.03;;;4.60;;
4957;SDS011;2494;51.872;9.688;2023-04-10T14:54:33;4.60;;;4.30;;
4957;SDS011;2494;51.872;9.688;2023-04-10T14:57:18;4.10;;;3.70;;
4957;SDS011;2494;51.872;9.688;2023-04-10T15:00:03;4.77;;;4.47;;
4957;SDS011;2494;51.872;9.688;2023-04-10T15:02:48;5.03;;;4.63;;
4957;SDS011;2494;51.872;9.688;2023-04-10T15:05:33;4.57;;;4.17;;
4957;SDS011;2494;51.872;9.688;2023-04-10T15:08:18;4.30;;;4.00;;
4957;SDS011;2494;51.872;9.688;2023-04-10T15:11:05;4.13;;;3.83;;
4957;SDS011;2494;51.872;9.688;2023-04-10T15:13:50;4.20;;;3.90;;
4957;SDS011;2494;51.872;9.688;2023-04-10T15:16:35;4.13;;;3.83;;
4957;SDS011;2494;51.872;9.688;2023-04-10T15:19:20;5.90;;;5.47;;
4957;SDS011;2494;51.872;9.688;2023-04-10T15:22:04;4.67;;;4.37;;
4957;SDS011;2494;51.872;9.688;2023-04-10T15:24:50;5.77;;;4.60;;
4957;SDS011;2494;51.872;9.688;2023-04-10T15:27:36;3.93;;;3.60;;
4957;SDS011;2494;51.872;9.688;2023-04-10T15:30:21;4.93;;;4.53;;
4957;SDS011;2494;51.872;9.688;2023-04-10T15:33:06;4.20;;;3.90;;
4957;SDS011;2494;51.872;9.688;2023-04-10T15:35:51;3.67;;;3.30;;
4957;SDS011;2494;51.872;9.688;2023-04-10T15:38:36;4.90;;;4.50;;
4957;SDS011;2494;51.872;9.688;2023-04-10T15:41:21;4.23;;;3.73;;
4957;SDS011;2494;51.872;9.688;2023-04-10T15:44:08;4.20;;;3.90;;
4957;SDS011;2494;51.872;9.688;2023-04-10T15:46:53;4.20;;;3.90;;
4957;SDS011;2494;51.872;9.688;2023-04-10T15:49:38;4.23;;;3.93;;
4957;SDS011;2494;51.872;9.688;2023-04-10T15:52:23;3.60;;;3.30;;
4957;SDS011;2494;51.872;9.688;2023-04-10T15:55:08;3.30;;;3.00;;
4957;SDS011;2494;51.872;9.688;2023-04-10T15:57:53;4.43;;;4.03;;
4957;SDS011;2494;51.872;9.688;2023-04-10T16:00:39;4.23;;;3.80;;
4957;SDS011;2494;51.872;9.688;2023-04-10T16:03:25;4.70;;;4.30;;
4957;SDS011;2494;51.872;9.688;2023-04-10T16:06:10;4.57;;;4.27;;
4957;SDS011;2494;51.872;9.688;2023-04-10T16:08:56;4.00;;;3.77;;
4957;SDS011;2494;51.872;9.688;2023-04-10T16:11:41;3.27;;;3.00;;
4957;SDS011;2494;51.872;9.688;2023-04-10T16:14:25;3.93;;;3.63;;
4957;SDS011;2494;51.872;9.688;2023-04-10T16:17:12;3.77;;;3.47;;
4957;SDS011;2494;51.872;9.688;2023-04-10T16:19:57;4.53;;;4.13;;
4957;SDS011;2494;51.872;9.688;2023-04-10T16:22:42;3.87;;;3.47;;
4957;SDS011;2494;51.872;9.688;2023-04-10T16:25:27;4.60;;;4.30;;
4957;SDS011;2494;51.872;9.688;2023-04-10T16:28:13;3.50;;;3.30;;
4957;SDS011;2494;51.872;9.688;2023-04-10T16:30:58;3.53;;;3.33;;
4957;SDS011;2494;51.872;9.688;2023-04-10T16:33:44;4.50;;;4.10;;
4957;SDS011;2494;51.872;9.688;2023-04-10T16:36:29;4.27;;;3.90;;
4957;SDS011;2494;51.872;9.688;2023-04-10T16:39:15;4.00;;;3.80;;
4957;SDS011;2494;51.872;9.688;2023-04-10T16:41:59;4.87;;;4.47;;
4957;SDS011;2494;51.872;9.688;2023-04-10T16:44:46;3.60;;;3.30;;
4957;SDS011;2494;51.872;9.688;2023-04-10T16:47:31;3.80;;;3.50;;
4957;SDS011;2494;51.872;9.688;2023-04-10T16:50:17;3.90;;;3.70;;
4957;SDS011;2494;51.872;9.688;2023-04-10T16:53:02;3.53;;;3.33;;
4957;SDS011;2494;51.872;9.688;2023-04-10T16:55:54;3.50;;;3.30;;
4957;SDS011;2494;51.872;9.688;2023-04-10T16:58:39;4.13;;;3.83;;
4957;SDS011;2494;51.872;9.688;2023-04-10T17:01:25;4.30;;;3.50;;
4957;SDS011;2494;51.872;9.688;2023-04-10T17:04:11;2.90;;;2.70;;
4957;SDS011;2494;51.872;9.688;2023-04-10T17:06:57;3.40;;;3.20;;
4957;SDS011;2494;51.872;9.688;2023-04-10T17:09:42;3.50;;;3.20;;